Time;durP1;ratioP1;P1;durP2;ratioP2;P2;SDS_P1;SDS_P2;PMS_P1;PMS_P2;Temp;Humidity;BMP_temperature;BMP_pressure;BME280_temperature;BME280_humidity;BME280_pressure;Samples;Min_cycle;Max_cycle;Signal;HPM_P1;HPM_P2
2022/12/04 00:04:21;;;;;;;28.40;18.60;;;;;;;;;;10279650;28;20076;-64
2022/12/04 00:09:19;;;;;;;30.45;18.55;;;;;;;;;;10280455;28;20076;-64
2022/12/04 00:14:17;;;;;;;28.30;18.75;;;;;;;;;;10279268;28;20081;-65
2022/12/04 00:19:17;;;;;;;23.58;16.80;;;;;;;;;;10279979;28;20414;-64
2022/12/04 00:24:15;;;;;;;27.40;17.23;;;;;;;;;;10279421;28;20072;-65
2022/12/04 00:29:13;;;;;;;27.25;17.73;;;;;;;;;;10278462;28;20509;-64
2022/12/04 00:34:12;;;;;;;24.35;16.98;;;;;;;;;;10277816;28;20040;-64
2022/12/04 00:39:11;;;;;;;27.02;18.63;;;;;;;;;;10273225;28;20069;-65
2022/12/04 00:44:09;;;;;;;23.17;17.75;;;;;;;;;;10245941;28;20088;-65
2022/12/04 00:49:07;;;;;;;26.83;17.95;;;;;;;;;;10238353;28;20078;-64
2022/12/04 00:54:06;;;;;;;32.33;22.33;;;;;;;;;;10238693;28;20076;-63
2022/12/04 00:59:05;;;;;;;48.83;33.50;;;;;;;;;;10237126;28;20511;-64
2022/12/04 01:04:03;;;;;;;27.33;18.17;;;;;;;;;;10237206;28;20533;-63
2022/12/04 01:09:03;;;;;;;29.33;21.45;;;;;;;;;;10237535;28;20054;-64
2022/12/04 01:14:02;;;;;;;28.40;18.50;;;;;;;;;;10237349;28;20054;-64
2022/12/04 01:19:02;;;;;;;34.80;23.17;;;;;;;;;;10237189;28;20049;-65
2022/12/04 01:24:00;;;;;;;56.22;34.13;;;;;;;;;;10236864;28;20088;-65
2022/12/04 01:28:59;;;;;;;31.13;21.27;;;;;;;;;;10236872;28;20052;-65
2022/12/04 01:33:57;;;;;;;56.30;36.28;;;;;;;;;;10235594;28;20079;-64
2022/12/04 01:38:57;;;;;;;30.83;25.55;;;;;;;;;;10236398;28;20052;-63
2022/12/04 01:44:09;;;;;;;32.60;22.20;;;;;;;;;;10236316;28;20089;-65
2022/12/04 01:49:08;;;;;;;25.73;17.80;;;;;;;;;;10235324;28;20053;-65
2022/12/04 01:54:09;;;;;;;24.73;17.95;;;;;;;;;;10236126;28;20490;-64
2022/12/04 01:59:08;;;;;;;21.30;18.13;;;;;;;;;;10242942;28;20056;-63
2022/12/04 02:04:06;;;;;;;25.30;18.38;;;;;;;;;;10267278;28;20518;-62
2022/12/04 02:09:06;;;;;;;24.73;18.77;;;;;;;;;;10245853;28;20084;-64
2022/12/04 02:14:10;;;;;;;25.05;19.70;;;;;;;;;;10235454;28;20087;-64
2022/12/04 02:19:20;;;;;;;25.20;18.10;;;;;;;;;;10235485;28;20091;-63
2022/12/04 02:24:30;;;;;;;27.02;18.75;;;;;;;;;;10233462;28;20081;-64
2022/12/04 02:29:34;;;;;;;27.08;19.73;;;;;;;;;;10235458;28;20080;-64
2022/12/04 02:34:35;;;;;;;28.05;20.60;;;;;;;;;;10234388;28;20046;-63
2022/12/04 02:39:35;;;;;;;22.63;17.65;;;;;;;;;;10234106;28;20439;-65
2022/12/04 02:44:37;;;;;;;28.42;20.25;;;;;;;;;;10234874;28;20081;-64
2022/12/04 02:49:38;;;;;;;24.88;18.17;;;;;;;;;;10234825;28;20053;-64
2022/12/04 02:54:38;;;;;;;26.10;18.25;;;;;;;;;;10233847;28;20065;-64
2022/12/04 02:59:39;;;;;;;28.20;18.45;;;;;;;;;;10240077;28;20048;-64
2022/12/04 03:04:39;;;;;;;25.40;17.83;;;;;;;;;;10274188;28;20072;-65
2022/12/04 03:09:40;;;;;;;24.30;18.75;;;;;;;;;;10281837;28;20077;-65
2022/12/04 03:14:42;;;;;;;23.15;17.98;;;;;;;;;;10282790;28;20064;-63
2022/12/04 03:19:43;;;;;;;27.67;19.00;;;;;;;;;;10282540;28;20454;-64
2022/12/04 03:24:43;;;;;;;24.52;17.20;;;;;;;;;;10282238;28;20073;-65
2022/12/04 03:29:44;;;;;;;22.25;16.92;;;;;;;;;;10282354;28;20085;-64
2022/12/04 03:34:49;;;;;;;30.75;19.73;;;;;;;;;;10282158;28;20122;-65
2022/12/04 03:39:53;;;;;;;21.17;16.63;;;;;;;;;;10281659;28;20406;-63
2022/12/04 03:44:55;;;;;;;18.30;14.45;;;;;;;;;;10281515;28;20091;-64
2022/12/04 03:49:56;;;;;;;19.15;14.32;;;;;;;;;;10281428;28;20083;-64
2022/12/04 03:54:57;;;;;;;20.30;14.35;;;;;;;;;;10281402;28;20053;-65
2022/12/04 03:59:59;;;;;;;16.27;13.50;;;;;;;;;;10280953;28;20052;-64
2022/12/04 04:04:58;;;;;;;19.67;14.25;;;;;;;;;;10280788;28;20076;-65
2022/12/04 04:09:59;;;;;;;17.23;14.13;;;;;;;;;;10280163;28;20044;-64
2022/12/04 04:25:36;;;;;;;16.25;12.30;;;;;;;;;;10279761;28;20088;-63
2022/12/04 04:30:36;;;;;;;19.13;12.38;;;;;;;;;;10278683;28;20070;-64
2022/12/04 04:35:39;;;;;;;16.20;12.93;;;;;;;;;;10278568;28;20502;-63
2022/12/04 04:40:40;;;;;;;17.42;13.48;;;;;;;;;;10278171;28;20091;-63
2022/12/04 04:45:44;;;;;;;18.45;14.10;;;;;;;;;;10272046;28;20477;-64
2022/12/04 04:50:44;;;;;;;18.90;13.88;;;;;;;;;;10278188;28;20459;-64
2022/12/04 04:55:42;;;;;;;19.20;14.32;;;;;;;;;;10277968;28;20052;-64
2022/12/04 05:00:45;;;;;;;18.38;13.85;;;;;;;;;;10278230;28;20056;-64
2022/12/04 05:05:43;;;;;;;21.45;16.70;;;;;;;;;;10277817;28;20076;-64
2022/12/04 05:10:41;;;;;;;17.52;14.10;;;;;;;;;;10256739;28;20049;-64
2022/12/04 05:15:39;;;;;;;19.33;14.32;;;;;;;;;;10271269;28;20055;-64
2022/12/04 05:20:40;;;;;;;19.33;16.02;;;;;;;;;;10264754;28;20072;-64
2022/12/04 05:25:38;;;;;;;19.65;13.30;;;;;;;;;;10268316;28;20048;-65
2022/12/04 05:30:36;;;;;;;16.60;14.32;;;;;;;;;;10255291;28;20061;-63
2022/12/04 05:35:34;;;;;;;16.90;13.10;;;;;;;;;;10257122;28;20087;-62
2022/12/04 05:40:34;;;;;;;20.45;15.55;;;;;;;;;;10271773;28;20072;-64
2022/12/04 05:45:32;;;;;;;28.00;18.50;;;;;;;;;;10275830;28;20064;-65
2022/12/04 05:50:30;;;;;;;20.20;13.15;;;;;;;;;;10257884;28;20068;-65
2022/12/04 05:55:28;;;;;;;21.85;16.45;;;;;;;;;;10253730;28;20068;-64
2022/12/04 06:00:28;;;;;;;21.38;15.40;;;;;;;;;;10252626;28;20084;-63
2022/12/04 06:05:26;;;;;;;23.77;17.70;;;;;;;;;;10249895;28;20094;-64
2022/12/04 06:10:24;;;;;;;38.97;24.73;;;;;;;;;;10251722;28;20048;-63
2022/12/04 06:15:22;;;;;;;23.58;17.33;;;;;;;;;;10259642;28;20605;-65
2022/12/04 06:20:22;;;;;;;19.38;16.08;;;;;;;;;;10254724;28;20038;-64
2022/12/04 06:25:20;;;;;;;21.20;15.77;;;;;;;;;;10234292;28;20080;-64
2022/12/04 06:30:18;;;;;;;22.75;17.33;;;;;;;;;;10240095;28;20070;-64
2022/12/04 06:35:16;;;;;;;20.23;16.10;;;;;;;;;;10264580;28;20081;-64
2022/12/04 06:40:16;;;;;;;29.67;22.00;;;;;;;;;;10242828;28;20081;-65
2022/12/04 06:45:14;;;;;;;27.70;18.75;;;;;;;;;;10243476;28;20084;-63
2022/12/04 06:50:12;;;;;;;23.40;16.17;;;;;;;;;;10243150;28;20048;-64
2022/12/04 06:55:11;;;;;;;18.85;14.32;;;;;;;;;;10240975;28;20069;-64
2022/12/04 07:00:11;;;;;;;22.20;16.65;;;;;;;;;;10238007;28;20084;-64
2022/12/04 07:05:09;;;;;;;21.88;15.45;;;;;;;;;;10246726;28;20080;-64
2022/12/04 07:10:07;;;;;;;20.17;16.48;;;;;;;;;;10245084;28;20077;-64
2022/12/04 07:15:06;;;;;;;24.13;18.48;;;;;;;;;;10241359;28;20077;-63
2022/12/04 07:20:06;;;;;;;22.77;17.27;;;;;;;;;;10244548;28;20069;-64
2022/12/04 07:25:05;;;;;;;21.20;15.77;;;;;;;;;;10260299;28;20079;-64
2022/12/04 07:30:03;;;;;;;27.10;18.55;;;;;;;;;;10255232;28;20076;-64
2022/12/04 07:35:01;;;;;;;40.75;26.38;;;;;;;;;;10241250;28;20136;-64
2022/12/04 07:40:01;;;;;;;28.08;21.58;;;;;;;;;;10251774;28;20045;-65
2022/12/04 07:44:59;;;;;;;25.10;19.92;;;;;;;;;;10237647;28;20096;-65
2022/12/04 07:49:57;;;;;;;25.52;19.13;;;;;;;;;;10240687;28;20264;-66
2022/12/04 07:54:55;;;;;;;21.95;16.80;;;;;;;;;;10240651;28;20054;-66
2022/12/04 07:59:57;;;;;;;23.27;16.90;;;;;;;;;;10240485;28;20042;-66
2022/12/04 08:04:55;;;;;;;19.30;15.98;;;;;;;;;;10239185;28;20068;-66
2022/12/04 08:09:54;;;;;;;26.05;18.83;;;;;;;;;;10239965;28;20095;-66
2022/12/04 08:14:52;;;;;;;27.52;21.38;;;;;;;;;;10239939;28;20080;-65
2022/12/04 08:19:52;;;;;;;28.40;22.75;;;;;;;;;;10238687;28;20423;-66
2022/12/04 08:24:50;;;;;;;26.52;19.23;;;;;;;;;;10239666;28;20068;-66
2022/12/04 08:29:49;;;;;;;27.23;21.23;;;;;;;;;;10239141;28;20069;-66
2022/12/04 08:34:47;;;;;;;42.05;24.40;;;;;;;;;;10237992;28;20069;-64
2022/12/04 08:39:53;;;;;;;31.95;22.17;;;;;;;;;;10239058;28;20045;-65
2022/12/04 08:44:52;;;;;;;39.20;25.05;;;;;;;;;;10239088;28;20092;-65
2022/12/04 08:49:50;;;;;;;37.90;25.40;;;;;;;;;;10238649;28;20065;-65
2022/12/04 08:54:50;;;;;;;44.28;32.80;;;;;;;;;;10237924;28;20454;-65
2022/12/04 08:59:49;;;;;;;32.42;27.60;;;;;;;;;;10238303;28;20088;-65
2022/12/04 09:04:47;;;;;;;37.90;32.35;;;;;;;;;;10237907;28;20069;-64
2022/12/04 09:09:46;;;;;;;26.63;21.88;;;;;;;;;;10237332;28;20408;-65
2022/12/04 09:14:45;;;;;;;26.42;20.17;;;;;;;;;;10237783;28;20068;-64
2022/12/04 09:19:45;;;;;;;40.03;27.30;;;;;;;;;;10237422;28;20056;-65
2022/12/04 09:24:43;;;;;;;45.00;31.55;;;;;;;;;;10236201;28;20084;-64
2022/12/04 09:29:41;;;;;;;27.88;20.45;;;;;;;;;;10236962;28;20095;-66
2022/12/04 09:34:39;;;;;;;34.28;22.48;;;;;;;;;;10236669;28;20042;-65
2022/12/04 09:39:39;;;;;;;30.52;21.60;;;;;;;;;;10235786;28;20046;-64
2022/12/04 09:44:40;;;;;;;25.02;18.42;;;;;;;;;;10236726;28;20487;-65
2022/12/04 09:49:40;;;;;;;24.20;18.23;;;;;;;;;;10236523;28;20042;-64
2022/12/04 09:54:42;;;;;;;27.48;19.92;;;;;;;;;;10236213;28;20073;-65
2022/12/04 09:59:40;;;;;;;30.05;21.83;;;;;;;;;;10236228;28;20054;-65
2022/12/04 10:04:38;;;;;;;26.65;18.20;;;;;;;;;;10235658;28;20069;-64
2022/12/04 10:09:39;;;;;;;25.77;20.88;;;;;;;;;;10234901;28;20056;-64
2022/12/04 10:14:46;;;;;;;17.95;15.35;;;;;;;;;;10235649;28;20775;-65
2022/12/04 10:19:48;;;;;;;28.95;19.42;;;;;;;;;;10235652;28;20060;-65
2022/12/04 10:24:48;;;;;;;27.38;18.52;;;;;;;;;;10235644;28;20100;-66
2022/12/04 10:29:50;;;;;;;35.53;21.42;;;;;;;;;;10234436;28;20072;-67
2022/12/04 10:34:49;;;;;;;17.20;13.73;;;;;;;;;;10235326;28;20049;-65
2022/12/04 10:39:50;;;;;;;48.70;39.67;;;;;;;;;;10247039;28;20470;-64
2022/12/04 10:44:50;;;;;;;22.20;17.10;;;;;;;;;;10270402;28;20530;-64
2022/12/04 10:49:48;;;;;;;28.98;22.50;;;;;;;;;;10272910;28;20064;-66
2022/12/04 10:54:48;;;;;;;38.22;22.90;;;;;;;;;;10275982;28;20434;-65
2022/12/04 10:59:51;;;;;;;48.13;27.77;;;;;;;;;;10275233;28;20072;-66
2022/12/04 11:04:55;;;;;;;56.17;32.30;;;;;;;;;;10274362;28;20084;-66
2022/12/04 11:09:55;;;;;;;20.98;15.65;;;;;;;;;;10240604;28;20081;-67
2022/12/04 11:15:01;;;;;;;55.03;30.88;;;;;;;;;;10234632;28;20084;-67
2022/12/04 11:20:00;;;;;;;21.63;15.57;;;;;;;;;;10237165;28;20045;-64
2022/12/04 11:24:59;;;;;;;23.95;16.73;;;;;;;;;;10275415;28;20076;-65
2022/12/04 11:30:00;;;;;;;17.38;12.75;;;;;;;;;;10251258;28;20069;-64
2022/12/04 11:35:01;;;;;;;16.45;12.18;;;;;;;;;;10250052;28;20089;-63
2022/12/04 11:40:00;;;;;;;12.25;10.38;;;;;;;;;;10257219;28;20065;-63
2022/12/04 11:44:59;;;;;;;17.65;14.73;;;;;;;;;;10256442;28;20104;-63
2022/12/04 11:50:04;;;;;;;13.70;11.38;;;;;;;;;;10255283;28;20072;-64
2022/12/04 11:55:02;;;;;;;;;;;;;;;;;;10257782;28;20160;-64
2022/12/04 12:00:03;;;;;;;14.05;11.40;;;;;;;;;;10256067;28;19959;-64
2022/12/04 12:05:18;;;;;;;26.65;23.23;;;;;;;;;;10255157;28;20080;-63
2022/12/04 12:10:18;;;;;;;18.15;14.60;;;;;;;;;;10264798;28;20063;-64
2022/12/04 12:15:23;;;;;;;27.33;20.02;;;;;;;;;;10252922;28;20423;-65
2022/12/04 12:20:24;;;;;;;17.40;12.27;;;;;;;;;;10244069;28;20488;-64
2022/12/04 12:25:26;;;;;;;20.23;16.48;;;;;;;;;;10251483;28;20088;-64
2022/12/04 12:30:26;;;;;;;17.92;13.50;;;;;;;;;;10259440;28;20069;-63
2022/12/04 12:35:29;;;;;;;21.08;15.63;;;;;;;;;;10263336;28;20092;-63
2022/12/04 12:40:30;;;;;;;21.02;14.77;;;;;;;;;;10255303;28;20045;-64
2022/12/04 12:45:32;;;;;;;19.50;13.15;;;;;;;;;;10263974;28;20076;-63
2022/12/04 12:50:35;;;;;;;21.17;14.68;;;;;;;;;;10251225;28;20080;-64
2022/12/04 12:55:35;;;;;;;26.20;17.73;;;;;;;;;;10256829;28;20447;-64
2022/12/04 13:00:36;;;;;;;31.05;23.30;;;;;;;;;;10249383;28;20478;-64
2022/12/04 13:05:39;;;;;;;18.92;15.00;;;;;;;;;;10253616;28;20080;-64
2022/12/04 13:10:40;;;;;;;29.45;17.10;;;;;;;;;;10254609;28;20072;-64
2022/12/04 13:15:39;;;;;;;24.73;19.25;;;;;;;;;;10250901;28;20080;-64
2022/12/04 13:20:43;;;;;;;25.10;16.45;;;;;;;;;;10253528;28;20044;-64
2022/12/04 13:25:45;;;;;;;18.67;14.77;;;;;;;;;;10248161;28;20073;-65
2022/12/04 13:30:47;;;;;;;19.80;15.18;;;;;;;;;;10244903;28;20079;-62
2022/12/04 13:36:00;;;;;;;22.20;15.35;;;;;;;;;;10248971;28;20076;-63
2022/12/04 13:41:00;;;;;;;17.58;14.07;;;;;;;;;;10246141;28;20498;-63
2022/12/04 13:45:59;;;;;;;21.25;15.15;;;;;;;;;;10255693;28;20076;-64
2022/12/04 13:51:22;;;;;;;26.25;19.40;;;;;;;;;;10250487;28;20069;-63
2022/12/04 13:56:25;;;;;;;22.75;17.58;;;;;;;;;;10253093;28;20057;-63
2022/12/04 14:01:24;;;;;;;24.70;19.08;;;;;;;;;;10239542;28;20060;-63
2022/12/04 14:06:25;;;;;;;23.80;19.73;;;;;;;;;;10245093;28;20081;-64
2022/12/04 14:11:23;;;;;;;44.58;28.48;;;;;;;;;;10236446;28;20258;-64
2022/12/04 14:16:23;;;;;;;31.73;22.88;;;;;;;;;;10241156;28;20076;-64
2022/12/04 14:21:22;;;;;;;32.83;21.85;;;;;;;;;;10252770;28;20071;-64
2022/12/04 14:26:24;;;;;;;46.97;31.30;;;;;;;;;;10255648;28;20077;-65
2022/12/04 14:31:42;;;;;;;28.35;19.33;;;;;;;;;;10240493;28;20073;-66
2022/12/04 14:36:42;;;;;;;31.33;23.85;;;;;;;;;;10234193;28;20415;-65
2022/12/04 14:41:41;;;;;;;32.72;23.48;;;;;;;;;;10234966;28;20477;-65
2022/12/04 14:46:42;;;;;;;35.03;28.38;;;;;;;;;;10248431;28;20088;-65
2022/12/04 14:51:44;;;;;;;39.30;28.02;;;;;;;;;;10250321;28;20448;-65
2022/12/04 14:56:49;;;;;;;40.00;29.90;;;;;;;;;;10257713;28;20077;-66
2022/12/04 15:01:48;;;;;;;49.33;32.42;;;;;;;;;;10262719;28;20419;-64
2022/12/04 15:06:48;;;;;;;33.83;24.42;;;;;;;;;;10256748;28;20076;-65
2022/12/04 15:17:09;;;;;;;68.93;53.25;;;;;;;;;;10255154;28;20479;-65
2022/12/04 15:22:11;;;;;;;38.38;32.05;;;;;;;;;;10246336;28;20072;-66
2022/12/04 15:27:12;;;;;;;50.13;32.65;;;;;;;;;;10250415;28;20071;-65
2022/12/04 15:32:11;;;;;;;62.88;50.47;;;;;;;;;;10254863;28;20526;-66
2022/12/04 15:37:15;;;;;;;81.63;52.50;;;;;;;;;;10255793;28;20065;-65
2022/12/04 15:42:17;;;;;;;63.10;38.08;;;;;;;;;;10265164;28;20084;-65
2022/12/04 15:47:17;;;;;;;72.65;41.38;;;;;;;;;;10280391;28;20073;-67
2022/12/04 15:52:16;;;;;;;71.05;35.67;;;;;;;;;;10254414;28;20067;-63
2022/12/04 15:57:21;;;;;;;28.17;20.90;;;;;;;;;;10254898;28;20071;-64
2022/12/04 16:02:23;;;;;;;37.83;30.13;;;;;;;;;;10258924;28;20061;-63
2022/12/04 16:07:22;;;;;;;39.42;27.17;;;;;;;;;;10251020;28;20115;-63
2022/12/04 16:12:25;;;;;;;41.17;25.45;;;;;;;;;;10254056;28;20541;-63
2022/12/04 16:17:28;;;;;;;42.25;30.13;;;;;;;;;;10261279;28;20064;-62
2022/12/04 16:22:28;;;;;;;29.92;23.20;;;;;;;;;;10254551;28;20528;-64
2022/12/04 16:27:28;;;;;;;23.25;19.88;;;;;;;;;;10246447;28;20156;-64
2022/12/04 16:32:29;;;;;;;30.42;23.42;;;;;;;;;;10250195;28;20463;-64
2022/12/04 16:37:28;;;;;;;28.17;21.45;;;;;;;;;;10270364;28;20084;-64
2022/12/04 16:42:28;;;;;;;50.70;34.60;;;;;;;;;;10253362;28;20077;-63
2022/12/04 16:47:27;;;;;;;39.33;28.73;;;;;;;;;;10247129;28;20076;-63
2022/12/04 16:52:25;;;;;;;32.97;24.85;;;;;;;;;;10248207;28;20069;-62
2022/12/04 16:57:23;;;;;;;38.25;24.55;;;;;;;;;;10253926;28;20122;-63
2022/12/04 17:02:25;;;;;;;30.25;22.48;;;;;;;;;;10258026;28;20069;-63
2022/12/04 17:07:24;;;;;;;37.67;26.35;;;;;;;;;;10253471;28;20085;-64
2022/12/04 17:12:22;;;;;;;31.00;23.35;;;;;;;;;;10258251;28;20075;-63
2022/12/04 17:17:20;;;;;;;34.05;24.38;;;;;;;;;;10261238;28;20037;-63
2022/12/04 17:22:25;;;;;;;38.42;23.23;;;;;;;;;;10237231;28;20042;-63
2022/12/04 17:27:25;;;;;;;24.88;19.00;;;;;;;;;;10245917;28;20085;-64
2022/12/04 17:32:24;;;;;;;27.45;20.05;;;;;;;;;;10259908;28;20064;-62
2022/12/04 17:37:23;;;;;;;33.25;25.25;;;;;;;;;;10254349;28;20084;-66
2022/12/04 17:42:22;;;;;;;28.33;22.35;;;;;;;;;;10247802;28;20482;-64
2022/12/04 17:47:20;;;;;;;24.85;18.73;;;;;;;;;;10248928;28;20065;-64
2022/12/04 17:52:21;;;;;;;32.45;25.92;;;;;;;;;;10247158;28;20069;-63
2022/12/04 17:57:21;;;;;;;34.90;25.95;;;;;;;;;;10242184;28;20468;-63
2022/12/04 18:02:19;;;;;;;53.35;35.40;;;;;;;;;;10240313;28;20080;-64
2022/12/04 18:07:17;;;;;;;43.85;30.38;;;;;;;;;;10256359;28;20076;-62
2022/12/04 18:12:16;;;;;;;28.30;22.95;;;;;;;;;;10255384;28;20506;-63
2022/12/04 18:17:16;;;;;;;34.50;23.42;;;;;;;;;;10252975;28;20068;-62
2022/12/04 18:22:14;;;;;;;88.20;50.17;;;;;;;;;;10248959;28;20080;-63
2022/12/04 18:27:12;;;;;;;30.15;23.42;;;;;;;;;;10243843;28;20082;-62
2022/12/04 18:32:11;;;;;;;33.47;25.25;;;;;;;;;;10257570;28;20486;-64
2022/12/04 18:37:11;;;;;;;38.30;25.67;;;;;;;;;;10241368;28;20057;-65
2022/12/04 18:42:09;;;;;;;42.92;30.60;;;;;;;;;;10241019;28;20083;-63
2022/12/04 18:47:07;;;;;;;36.00;27.70;;;;;;;;;;10252665;28;20115;-62
2022/12/04 18:52:05;;;;;;;22.90;18.75;;;;;;;;;;10249117;28;20064;-64
2022/12/04 18:57:05;;;;;;;27.73;21.25;;;;;;;;;;10253484;28;20041;-62
2022/12/04 19:02:04;;;;;;;23.42;18.45;;;;;;;;;;10255686;28;20088;-63
2022/12/04 19:07:03;;;;;;;27.15;18.88;;;;;;;;;;10252045;28;20080;-62
2022/12/04 19:12:01;;;;;;;21.88;18.30;;;;;;;;;;10251774;28;21808;-62
2022/12/04 19:17:01;;;;;;;24.83;20.05;;;;;;;;;;10249732;28;20072;-61
2022/12/04 19:22:00;;;;;;;28.88;22.23;;;;;;;;;;10250460;28;20515;-62
2022/12/04 19:27:00;;;;;;;30.55;22.45;;;;;;;;;;10243550;28;20077;-61
2022/12/04 19:31:59;;;;;;;49.78;29.42;;;;;;;;;;10247170;28;20061;-63
2022/12/04 19:36:58;;;;;;;31.80;23.42;;;;;;;;;;10245450;28;20064;-63
2022/12/04 19:41:57;;;;;;;22.42;17.45;;;;;;;;;;10249969;28;20081;-62
2022/12/04 19:46:55;;;;;;;32.75;21.20;;;;;;;;;;10255646;28;20075;-63
2022/12/04 19:51:53;;;;;;;24.00;19.58;;;;;;;;;;10250639;28;20068;-64
2022/12/04 19:56:53;;;;;;;29.15;22.15;;;;;;;;;;10263991;28;20072;-63
2022/12/04 20:01:51;;;;;;;38.88;28.20;;;;;;;;;;10249292;28;20076;-64
2022/12/04 20:06:50;;;;;;;42.63;29.50;;;;;;;;;;10249588;28;20073;-64
2022/12/04 20:11:48;;;;;;;39.53;30.25;;;;;;;;;;10250677;28;20069;-64
2022/12/04 20:16:48;;;;;;;21.33;17.80;;;;;;;;;;10253960;28;20065;-64
2022/12/04 20:21:47;;;;;;;20.40;16.27;;;;;;;;;;10256435;28;20082;-63
2022/12/04 20:26:45;;;;;;;64.35;38.70;;;;;;;;;;10258068;28;20064;-63
2022/12/04 20:31:44;;;;;;;27.27;20.63;;;;;;;;;;10255314;28;20061;-65
2022/12/04 20:36:44;;;;;;;24.20;21.60;;;;;;;;;;10259948;28;20057;-64
2022/12/04 20:41:42;;;;;;;20.45;17.38;;;;;;;;;;10252443;28;20071;-64
2022/12/04 20:46:41;;;;;;;26.90;19.50;;;;;;;;;;10247692;28;20045;-64
2022/12/04 20:51:40;;;;;;;31.27;23.80;;;;;;;;;;10248213;28;20072;-63
2022/12/04 20:56:40;;;;;;;24.38;18.50;;;;;;;;;;10257702;28;20071;-64
2022/12/04 21:01:38;;;;;;;21.00;14.90;;;;;;;;;;10258852;28;20064;-63
2022/12/04 21:06:37;;;;;;;20.92;14.82;;;;;;;;;;10255897;28;20076;-63
2022/12/04 21:11:37;;;;;;;24.63;18.35;;;;;;;;;;10245528;28;20525;-64
2022/12/04 21:16:37;;;;;;;17.50;14.80;;;;;;;;;;10266389;28;20087;-63
2022/12/04 21:21:35;;;;;;;20.80;17.10;;;;;;;;;;10260413;28;20594;-63
2022/12/04 21:26:33;;;;;;;17.10;15.20;;;;;;;;;;10245843;28;20057;-64
2022/12/04 21:31:32;;;;;;;13.68;11.90;;;;;;;;;;10255966;28;20069;-64
2022/12/04 21:36:31;;;;;;;17.50;13.45;;;;;;;;;;10251554;28;20069;-64
2022/12/04 21:46:45;;;;;;;;;;;;;;;;;;10252624;28;20064;-64
2022/12/04 21:51:44;;;;;;;8.50;7.55;;;;;;;;;;10248710;28;19960;-64
2022/12/04 21:56:54;;;;;;;10.45;8.18;;;;;;;;;;10233920;28;20526;-65
2022/12/04 22:01:53;;;;;;;13.07;9.95;;;;;;;;;;10233351;28;20092;-63
2022/12/04 22:06:53;;;;;;;9.25;8.35;;;;;;;;;;10262129;28;20060;-64
2022/12/04 22:11:51;;;;;;;8.95;8.02;;;;;;;;;;10275162;28;20530;-64
2022/12/04 22:16:50;;;;;;;12.95;10.77;;;;;;;;;;10275198;28;20052;-64
2022/12/04 22:21:48;;;;;;;17.85;13.15;;;;;;;;;;10275057;28;20414;-63
2022/12/04 22:26:49;;;;;;;12.70;10.00;;;;;;;;;;10274588;28;20045;-64
2022/12/04 22:31:47;;;;;;;23.13;15.38;;;;;;;;;;10274971;28;20068;-64
2022/12/04 22:36:45;;;;;;;17.15;11.48;;;;;;;;;;10274802;28;20045;-64
2022/12/04 22:41:43;;;;;;;23.02;13.00;;;;;;;;;;10274546;28;20380;-62
2022/12/04 22:46:43;;;;;;;17.20;12.15;;;;;;;;;;10274108;28;20048;-63
2022/12/04 22:51:41;;;;;;;13.93;9.65;;;;;;;;;;10274346;28;20126;-63
2022/12/04 22:56:39;;;;;;;17.63;12.93;;;;;;;;;;10273918;28;20072;-64
2022/12/04 23:01:38;;;;;;;24.17;16.83;;;;;;;;;;10274400;28;20410;-63
2022/12/04 23:06:38;;;;;;;8.48;7.57;;;;;;;;;;10274382;28;20064;-63
2022/12/04 23:11:36;;;;;;;18.88;10.90;;;;;;;;;;10274292;28;20068;-63
2022/12/04 23:16:35;;;;;;;15.20;9.70;;;;;;;;;;10277550;28;20052;-63
2022/12/04 23:21:34;;;;;;;16.70;10.18;;;;;;;;;;10281650;28;20076;-63
2022/12/04 23:26:34;;;;;;;10.50;6.93;;;;;;;;;;10281701;28;20045;-64
2022/12/04 23:31:33;;;;;;;13.18;8.00;;;;;;;;;;10281567;28;20079;-64
2022/12/04 23:36:31;;;;;;;6.57;4.82;;;;;;;;;;10281291;28;20052;-65
2022/12/04 23:41:31;;;;;;;11.75;8.23;;;;;;;;;;10254515;28;20069;-64
2022/12/04 23:46:31;;;;;;;12.70;8.38;;;;;;;;;;10240465;28;20069;-64
2022/12/04 23:51:30;;;;;;;10.73;8.27;;;;;;;;;;10239921;28;20088;-64
2022/12/04 23:56:28;;;;;;;14.02;8.55;;;;;;;;;;10239763;28;20072;-64
